createdAt,value
2023-11-24T00:00:42.581Z,95718.00
2023-11-24T00:01:52.720Z,95712.00
2023-11-24T00:02:42.558Z,95710.00
2023-11-24T00:03:42.589Z,95708.00
2023-11-24T00:04:42.527Z,95708.00
2023-11-24T00:05:42.516Z,95711.00
2023-11-24T00:06:42.565Z,95710.00
2023-11-24T00:07:42.505Z,95708.00
2023-11-24T00:08:42.496Z,95703.00
2023-11-24T00:09:42.523Z,95701.00
2023-11-24T00:10:42.469Z,95696.00
2023-11-24T00:11:42.461Z,95689.00
2023-11-24T00:12:42.486Z,95679.00
2023-11-24T00:13:42.469Z,95672.00
2023-11-24T00:14:42.435Z,95661.00
2023-11-24T00:15:42.486Z,95657.00
2023-11-24T00:16:42.461Z,95650.00
2023-11-24T00:17:42.525Z,95642.00
2023-11-24T00:18:42.455Z,95644.00
2023-11-24T00:19:42.397Z,95644.00
2023-11-24T00:20:42.388Z,95637.00
2023-11-24T00:21:42.479Z,95630.00
2023-11-24T00:22:42.422Z,95624.00
2023-11-24T00:23:42.376Z,95626.00
2023-11-24T00:24:42.361Z,95631.00
2023-11-24T00:25:42.342Z,95636.00
2023-11-24T00:26:42.340Z,95633.00
2023-11-24T00:27:42.376Z,95633.00
2023-11-24T00:28:42.323Z,95638.00
2023-11-24T00:29:42.312Z,95636.00
2023-11-24T00:30:42.321Z,95631.00
2023-11-24T00:31:42.309Z,95624.00
2023-11-24T00:32:42.349Z,95618.00
2023-11-24T00:33:42.373Z,95618.00
2023-11-24T00:34:42.306Z,95616.00
2023-11-24T00:35:42.319Z,95611.00
2023-11-24T00:36:42.302Z,95602.00
2023-11-24T00:37:42.256Z,95596.00
2023-11-24T00:38:42.231Z,95600.00
2023-11-24T00:39:42.282Z,95602.00
2023-11-24T00:40:42.221Z,95587.00
2023-11-24T00:41:42.211Z,95587.00
2023-11-24T00:42:42.236Z,95589.00
2023-11-24T00:43:42.178Z,95585.00
2023-11-24T00:44:42.172Z,95588.00
2023-11-24T00:45:42.187Z,95591.00
2023-11-24T00:46:42.191Z,95587.00
2023-11-24T00:47:42.161Z,95580.00
2023-11-24T00:48:42.176Z,95581.00
2023-11-24T00:49:42.122Z,95583.00
2023-11-24T00:50:42.131Z,95579.00
2023-11-24T00:51:42.110Z,95577.00
2023-11-24T00:52:42.131Z,95581.00
2023-11-24T00:53:42.099Z,95581.00
2023-11-24T00:54:42.102Z,95578.00
2023-11-24T00:55:42.095Z,95585.00
2023-11-24T00:56:42.069Z,95595.00
2023-11-24T00:57:42.094Z,95597.00
2023-11-24T00:58:42.082Z,95589.00
2023-11-24T00:59:42.046Z,95592.00
2023-11-24T01:00:42.087Z,95586.00
2023-11-24T01:01:42.100Z,95584.00
2023-11-24T01:02:42.094Z,95582.00
2023-11-24T01:03:42.102Z,95578.00
2023-11-24T01:04:42.043Z,95576.00
2023-11-24T01:05:41.987Z,95567.00
2023-11-24T01:06:42.100Z,95565.00
2023-11-24T01:07:41.968Z,95585.00
2023-11-24T01:08:41.978Z,95582.00
2023-11-24T01:09:41.966Z,95564.00
2023-11-24T01:10:41.953Z,95572.00
2023-11-24T01:11:41.935Z,95570.00
2023-11-24T01:12:41.955Z,95566.00
2023-11-24T01:13:41.916Z,95570.00
2023-11-24T01:14:41.942Z,95573.00
2023-11-24T01:15:41.936Z,95570.00
2023-11-24T01:16:41.902Z,95565.00
2023-11-24T01:17:41.951Z,95565.00
2023-11-24T01:18:41.909Z,95560.00
2023-11-24T01:19:41.871Z,95558.00
2023-11-24T01:20:41.857Z,95561.00
2023-11-24T01:21:41.895Z,95562.00
2023-11-24T01:22:41.852Z,95563.00
2023-11-24T01:23:41.842Z,95559.00
2023-11-24T01:24:41.830Z,95548.00
2023-11-24T01:25:41.813Z,95550.00
2023-11-24T01:26:41.816Z,95556.00
2023-11-24T01:27:41.997Z,95560.00
2023-11-24T01:28:42.479Z,95560.00
2023-11-24T01:29:41.807Z,95563.00
2023-11-24T01:30:41.831Z,95563.00
2023-11-24T01:31:41.791Z,95557.00
2023-11-24T01:32:41.846Z,95551.00
2023-11-24T01:33:41.775Z,95550.00
2023-11-24T01:34:41.774Z,95547.00
2023-11-24T01:35:41.756Z,95546.00
2023-11-24T01:36:41.783Z,95548.00
2023-11-24T01:37:41.736Z,95551.00
2023-11-24T01:38:41.719Z,95553.00
2023-11-24T01:39:41.727Z,95547.00
2023-11-24T01:40:41.684Z,95539.00
2023-11-24T01:41:41.678Z,95539.00
2023-11-24T01:42:41.711Z,95544.00
2023-11-24T01:43:41.667Z,95548.00
2023-11-24T01:44:41.667Z,95548.00
2023-11-24T01:45:41.709Z,95546.00
2023-11-24T01:46:41.697Z,95553.00
2023-11-24T01:47:41.668Z,95558.00
2023-11-24T01:48:41.655Z,95565.00
2023-11-24T01:49:41.607Z,95558.00
2023-11-24T01:50:41.609Z,95561.00
2023-11-24T01:51:41.620Z,95565.00
2023-11-24T01:52:41.596Z,95560.00
2023-11-24T01:53:41.559Z,95561.00
2023-11-24T01:54:41.584Z,95557.00
2023-11-24T01:55:41.553Z,95555.00
2023-11-24T01:56:41.548Z,95552.00
2023-11-24T01:57:41.584Z,95545.00
2023-11-24T01:58:41.529Z,95538.00
2023-11-24T01:59:41.551Z,95537.00
2023-11-24T02:00:41.517Z,95530.00
2023-11-24T02:01:41.580Z,95519.00
2023-11-24T02:02:41.615Z,95514.00
2023-11-24T02:03:41.543Z,95510.00
2023-11-24T02:04:41.474Z,95517.00
2023-11-24T02:05:41.499Z,95519.00
2023-11-24T02:06:41.485Z,95517.00
2023-11-24T02:07:41.455Z,95520.00
2023-11-24T02:08:41.452Z,95517.00
2023-11-24T02:09:41.455Z,95507.00
2023-11-24T02:10:41.450Z,95504.00
2023-11-24T02:11:41.405Z,95505.00
2023-11-24T02:12:41.466Z,95508.00
2023-11-24T02:13:41.400Z,95512.00
2023-11-24T02:14:41.400Z,95509.00
2023-11-24T02:15:41.401Z,95501.00
2023-11-24T02:16:41.399Z,95500.00
2023-11-24T02:17:41.394Z,95508.00
2023-11-24T02:18:41.368Z,95516.00
2023-11-24T02:19:41.359Z,95512.00
2023-11-24T02:20:41.347Z,95508.00
2023-11-24T02:21:41.355Z,95508.00
2023-11-24T02:22:41.338Z,95513.00
2023-11-24T02:23:41.310Z,95506.00
2023-11-24T02:24:41.334Z,95487.00
2023-11-24T02:25:41.298Z,95487.00
2023-11-24T02:26:41.298Z,95491.00
2023-11-24T02:27:41.296Z,95492.00
2023-11-24T02:28:41.279Z,95488.00
2023-11-24T02:29:41.248Z,95485.00
2023-11-24T02:30:41.350Z,95479.00
2023-11-24T02:31:41.304Z,95479.00
2023-11-24T02:32:41.330Z,95471.00
2023-11-24T02:33:41.226Z,95463.00
2023-11-24T02:34:41.234Z,95460.00
2023-11-24T02:35:41.203Z,95462.00
2023-11-24T02:36:41.222Z,95459.00
2023-11-24T02:37:41.210Z,95457.00
2023-11-24T02:38:41.185Z,95457.00
2023-11-24T02:39:41.180Z,95451.00
2023-11-24T02:40:41.810Z,95443.00
2023-11-24T02:41:41.141Z,95441.00
2023-11-24T02:42:41.153Z,95445.00
2023-11-24T02:43:41.145Z,95445.00
2023-11-24T02:44:41.122Z,95437.00
2023-11-24T02:45:41.158Z,95432.00
2023-11-24T02:46:41.101Z,95429.00
2023-11-24T02:47:41.125Z,95428.00
2023-11-24T02:48:41.133Z,95425.00
2023-11-24T02:49:41.092Z,95422.00
2023-11-24T02:50:41.093Z,95418.00
2023-11-24T02:51:41.108Z,95414.00
2023-11-24T02:52:41.067Z,95412.00
2023-11-24T02:53:41.053Z,95413.00
2023-11-24T02:54:41.076Z,95415.00
2023-11-24T02:55:41.029Z,95417.00
2023-11-24T02:56:41.050Z,95414.00
2023-11-24T02:57:41.047Z,95415.00
2023-11-24T02:58:41.019Z,95422.00
2023-11-24T02:59:40.997Z,95426.00
2023-11-24T03:00:41.044Z,95424.00
2023-11-24T03:01:41.705Z,95424.00
2023-11-24T03:02:41.021Z,95415.00
2023-11-24T03:03:41.014Z,95413.00
2023-11-24T03:04:40.977Z,95413.00
2023-11-24T03:05:40.944Z,95408.00
2023-11-24T03:06:41.011Z,95410.00
2023-11-24T03:07:40.935Z,95414.00
2023-11-24T03:08:40.919Z,95415.00
2023-11-24T03:09:40.932Z,95407.00
2023-11-24T03:10:40.904Z,95405.00
2023-11-24T03:11:40.890Z,95409.00
2023-11-24T03:12:40.888Z,95415.00
2023-11-24T03:13:40.888Z,95415.00
2023-11-24T03:14:40.865Z,95415.00
2023-11-24T03:15:40.904Z,95418.00
2023-11-24T03:16:41.417Z,95416.00
2023-11-24T03:17:40.860Z,95406.00
2023-11-24T03:18:40.856Z,95394.00
2023-11-24T03:19:40.818Z,95390.00
2023-11-24T03:20:40.821Z,95390.00
2023-11-24T03:21:40.825Z,95387.00
2023-11-24T03:22:40.817Z,95387.00
2023-11-24T03:23:40.788Z,95388.00
2023-11-24T03:24:40.790Z,95390.00
2023-11-24T03:25:40.763Z,95393.00
2023-11-24T03:26:40.816Z,95391.00
2023-11-24T03:27:40.759Z,95388.00
2023-11-24T03:28:40.758Z,95395.00
2023-11-24T03:29:40.767Z,95409.00
2023-11-24T03:30:40.780Z,95417.00
2023-11-24T03:31:40.715Z,95413.00
2023-11-24T03:32:40.775Z,95412.00
2023-11-24T03:33:40.777Z,95405.00
2023-11-24T03:34:40.752Z,95396.00
2023-11-24T03:35:40.691Z,95388.00
2023-11-24T03:36:40.707Z,95383.00
2023-11-24T03:37:40.676Z,95380.00
2023-11-24T03:38:40.662Z,95374.00
2023-11-24T03:39:40.662Z,95378.00
2023-11-24T03:40:41.357Z,95380.00
2023-11-24T03:41:40.647Z,95381.00
2023-11-24T03:42:40.752Z,95378.00
2023-11-24T03:43:40.606Z,95364.00
2023-11-24T03:44:40.611Z,95360.00
2023-11-24T03:45:40.630Z,95375.00
2023-11-24T03:46:40.632Z,95390.00
2023-11-24T03:47:40.823Z,95399.00
2023-11-24T03:48:40.616Z,95400.00
2023-11-24T03:49:40.548Z,95405.00
2023-11-24T03:50:40.574Z,95409.00
2023-11-24T03:51:40.573Z,95412.00
2023-11-24T03:52:40.530Z,95414.00
2023-11-24T03:53:40.540Z,95410.00
2023-11-24T03:54:40.548Z,95396.00
2023-11-24T03:55:40.498Z,95383.00
2023-11-24T03:56:40.502Z,95380.00
2023-11-24T03:57:40.513Z,95390.00
2023-11-24T03:58:40.490Z,95393.00
2023-11-24T03:59:40.498Z,95382.00
2023-11-24T04:00:40.584Z,95375.00
2023-11-24T04:01:40.630Z,95375.00
2023-11-24T04:02:40.543Z,95378.00
2023-11-24T04:03:40.529Z,95373.00
2023-11-24T04:04:40.451Z,95357.00
2023-11-24T04:05:40.423Z,95351.00
2023-11-24T04:06:40.494Z,95363.00
2023-11-24T04:07:40.449Z,95374.00
2023-11-24T04:08:40.407Z,95370.00
2023-11-24T04:09:40.425Z,95355.00
2023-11-24T04:10:40.377Z,95334.00
2023-11-24T04:11:40.397Z,95331.00
2023-11-24T04:12:40.403Z,95344.00
2023-11-24T04:13:40.367Z,95354.00
2023-11-24T04:14:40.347Z,95357.00
2023-11-24T04:15:40.453Z,95344.00
2023-11-24T04:16:40.423Z,95338.00
2023-11-24T04:17:40.375Z,95344.00
2023-11-24T04:18:40.367Z,95357.00
2023-11-24T04:19:40.302Z,95357.00
2023-11-24T04:20:40.308Z,95349.00
2023-11-24T04:21:40.322Z,95339.00
2023-11-24T04:22:40.284Z,95335.00
2023-11-24T04:23:40.373Z,95334.00
2023-11-24T04:24:40.349Z,95340.00
2023-11-24T04:25:40.246Z,95336.00
2023-11-24T04:26:40.256Z,95330.00
2023-11-24T04:27:40.281Z,95318.00
2023-11-24T04:28:40.234Z,95317.00
2023-11-24T04:29:40.242Z,95321.00
2023-11-24T04:30:40.322Z,95313.00
2023-11-24T04:31:40.208Z,95302.00
2023-11-24T04:32:40.219Z,95290.00
2023-11-24T04:33:40.236Z,95288.00
2023-11-24T04:34:40.280Z,95293.00
2023-11-24T04:35:40.179Z,95301.00
2023-11-24T04:36:40.239Z,95308.00
2023-11-24T04:37:40.150Z,95309.00
2023-11-24T04:38:40.164Z,95312.00
2023-11-24T04:39:40.206Z,95312.00
2023-11-24T04:40:40.138Z,95321.00
2023-11-24T04:41:40.112Z,95329.00
2023-11-24T04:42:40.259Z,95339.00
2023-11-24T04:43:40.144Z,95335.00
2023-11-24T04:44:40.110Z,95327.00
2023-11-24T04:45:40.183Z,95329.00
2023-11-24T04:46:40.200Z,95324.00
2023-11-24T04:47:40.192Z,95325.00
2023-11-24T04:48:40.075Z,95321.00
2023-11-24T04:49:40.059Z,95312.00
2023-11-24T04:50:40.039Z,95311.00
2023-11-24T04:51:40.073Z,95319.00
2023-11-24T04:52:40.026Z,95320.00
2023-11-24T04:53:41.645Z,95314.00
2023-11-24T04:54:40.055Z,95314.00
2023-11-24T04:55:40.012Z,95317.00
2023-11-24T04:56:39.986Z,95316.00
2023-11-24T04:57:40.046Z,95310.00
2023-11-24T04:58:39.975Z,95304.00
2023-11-24T04:59:39.967Z,95307.00
2023-11-24T05:00:40.009Z,95316.00
2023-11-24T05:01:39.997Z,95324.00
2023-11-24T05:02:40.037Z,95314.00
2023-11-24T05:03:40.028Z,95297.00
2023-11-24T05:04:40.008Z,95293.00
2023-11-24T05:05:39.929Z,95295.00
2023-11-24T05:06:39.955Z,95293.00
2023-11-24T05:07:39.911Z,95287.00
2023-11-24T05:08:39.888Z,95283.00
2023-11-24T05:09:39.972Z,95279.00
2023-11-24T05:10:39.880Z,95280.00
2023-11-24T05:11:39.878Z,95277.00
2023-11-24T05:12:39.902Z,95275.00
2023-11-24T05:13:39.851Z,95279.00
2023-11-24T05:14:39.837Z,95291.00
2023-11-24T05:15:39.847Z,95296.00
2023-11-24T05:16:39.858Z,95299.00
2023-11-24T05:17:39.991Z,95300.00
2023-11-24T05:18:39.851Z,95296.00
2023-11-24T05:19:39.824Z,95295.00
2023-11-24T05:20:39.801Z,95298.00
2023-11-24T05:21:53.827Z,95303.00
2023-11-24T05:22:39.773Z,95302.00
2023-11-24T05:23:39.828Z,95298.00
2023-11-24T05:24:39.796Z,95299.00
2023-11-24T05:25:39.750Z,95301.00
2023-11-24T05:26:39.752Z,95302.00
2023-11-24T05:27:39.766Z,95301.00
2023-11-24T05:28:39.711Z,95300.00
2023-11-24T05:29:39.719Z,95296.00
2023-11-24T05:30:39.762Z,95291.00
2023-11-24T05:31:39.716Z,95286.00
2023-11-24T05:32:39.770Z,95286.00
2023-11-24T05:33:39.726Z,95287.00
2023-11-24T05:34:39.669Z,95294.00
2023-11-24T05:35:39.657Z,95287.00
2023-11-24T05:36:39.673Z,95285.00
2023-11-24T05:37:39.657Z,95279.00
2023-11-24T05:38:39.655Z,95277.00
2023-11-24T05:39:39.729Z,95281.00
2023-11-24T05:40:39.623Z,95283.00
2023-11-24T05:41:39.620Z,95283.00
2023-11-24T05:42:39.641Z,95288.00
2023-11-24T05:43:39.602Z,95289.00
2023-11-24T05:44:39.579Z,95291.00
2023-11-24T05:45:39.669Z,95294.00
2023-11-24T05:46:39.588Z,95295.00
2023-11-24T05:47:39.583Z,95293.00
2023-11-24T05:48:39.596Z,95291.00
2023-11-24T05:49:39.544Z,95294.00
2023-11-24T05:50:39.537Z,95297.00
2023-11-24T05:51:40.077Z,95296.00
2023-11-24T05:52:39.548Z,95293.00
2023-11-24T05:53:39.504Z,95290.00
2023-11-24T05:54:39.528Z,95285.00
2023-11-24T05:55:39.500Z,95285.00
2023-11-24T05:56:39.491Z,95281.00
2023-11-24T05:57:39.505Z,95279.00
2023-11-24T05:58:39.480Z,95278.00
2023-11-24T05:59:39.457Z,95274.00
2023-11-24T06:00:39.480Z,95276.00
2023-11-24T06:01:39.464Z,95282.00
2023-11-24T06:02:39.438Z,95292.00
2023-11-24T06:03:39.495Z,95288.00
2023-11-24T06:04:39.688Z,95279.00
2023-11-24T06:05:39.489Z,95276.00
2023-11-24T06:06:39.424Z,95270.00
2023-11-24T06:07:39.411Z,95268.00
2023-11-24T06:08:39.377Z,95267.00
2023-11-24T06:09:39.407Z,95274.00
2023-11-24T06:10:39.376Z,95274.00
2023-11-24T06:11:39.365Z,95279.00
2023-11-24T06:12:39.395Z,95277.00
2023-11-24T06:13:39.344Z,95266.00
2023-11-24T06:14:39.349Z,95257.00
2023-11-24T06:15:39.349Z,95260.00
2023-11-24T06:16:39.366Z,95268.00
2023-11-24T06:17:39.347Z,95271.00
2023-11-24T06:18:39.344Z,95263.00
2023-11-24T06:19:39.308Z,95257.00
2023-11-24T06:20:39.302Z,95255.00
2023-11-24T06:21:39.338Z,95251.00
2023-11-24T06:22:39.267Z,95246.00
2023-11-24T06:23:39.262Z,95250.00
2023-11-24T06:24:39.260Z,95258.00
2023-11-24T06:25:39.252Z,95255.00
2023-11-24T06:26:39.222Z,95245.00
2023-11-24T06:27:39.286Z,95234.00
2023-11-24T06:28:39.203Z,95218.00
2023-11-24T06:29:39.210Z,95212.00
2023-11-24T06:30:39.234Z,95224.00
2023-11-24T06:31:39.191Z,95230.00
2023-11-24T06:32:39.209Z,95232.00
2023-11-24T06:33:39.250Z,95227.00
2023-11-24T06:34:39.219Z,95226.00
2023-11-24T06:35:39.171Z,95227.00
2023-11-24T06:36:39.184Z,95229.00
2023-11-24T06:37:39.136Z,95225.00
2023-11-24T06:38:39.126Z,95237.00
2023-11-24T06:39:39.953Z,95247.00
2023-11-24T06:40:39.116Z,95257.00
2023-11-24T06:41:39.131Z,95259.00
2023-11-24T06:42:39.128Z,95251.00
2023-11-24T06:43:39.106Z,95242.00
2023-11-24T06:44:39.072Z,95235.00
2023-11-24T06:45:39.097Z,95236.00
2023-11-24T06:46:39.074Z,95248.00
2023-11-24T06:47:39.098Z,95249.00
2023-11-24T06:48:39.083Z,95242.00
2023-11-24T06:49:39.039Z,95225.00
2023-11-24T06:50:39.023Z,95215.00
2023-11-24T06:51:39.161Z,95213.00
2023-11-24T06:52:39.023Z,95219.00
2023-11-24T06:53:39.004Z,95226.00
2023-11-24T06:54:39.028Z,95229.00
2023-11-24T06:55:38.982Z,95215.00
2023-11-24T06:56:38.989Z,95208.00
2023-11-24T06:57:39.040Z,95214.00
2023-11-24T06:58:38.990Z,95210.00
2023-11-24T06:59:38.989Z,95216.00
2023-11-24T07:00:39.066Z,95228.00
2023-11-24T07:01:39.037Z,95231.00
2023-11-24T07:02:38.937Z,95229.00
2023-11-24T07:03:38.989Z,95219.00
2023-11-24T07:04:38.965Z,95209.00
2023-11-24T07:05:38.908Z,95212.00
2023-11-24T07:06:38.934Z,95214.00
2023-11-24T07:07:38.926Z,95214.00
2023-11-24T07:08:38.891Z,95207.00
2023-11-24T07:09:38.872Z,95201.00
2023-11-24T07:10:38.908Z,95197.00
2023-11-24T07:11:38.878Z,95189.00
2023-11-24T07:12:38.873Z,95193.00
2023-11-24T07:13:38.858Z,95197.00
2023-11-24T07:14:38.817Z,95189.00
2023-11-24T07:15:38.881Z,95181.00
2023-11-24T07:16:38.937Z,95179.00
2023-11-24T07:17:38.811Z,95181.00
2023-11-24T07:18:38.934Z,95182.00
2023-11-24T07:19:38.851Z,95188.00
2023-11-24T07:20:38.765Z,95196.00
2023-11-24T07:21:38.776Z,95192.00
2023-11-24T07:22:38.743Z,95172.00
2023-11-24T07:23:38.753Z,95158.00
2023-11-24T07:24:38.766Z,95161.00
2023-11-24T07:25:38.734Z,95166.00
2023-11-24T07:26:38.778Z,95167.00
2023-11-24T07:27:38.738Z,95166.00
2023-11-24T07:28:38.716Z,95169.00
2023-11-24T07:29:38.788Z,95164.00
2023-11-24T07:30:38.699Z,95152.00
2023-11-24T07:31:38.668Z,95138.00
2023-11-24T07:32:38.707Z,95136.00
2023-11-24T07:33:38.667Z,95132.00
2023-11-24T07:34:38.823Z,95130.00
2023-11-24T07:35:38.644Z,95137.00
2023-11-24T07:36:38.672Z,95138.00
2023-11-24T07:37:38.645Z,95137.00
2023-11-24T07:38:38.606Z,95137.00
2023-11-24T07:39:38.649Z,95127.00
2023-11-24T07:40:38.594Z,95115.00
2023-11-24T07:41:38.598Z,95122.00
2023-11-24T07:42:38.706Z,95128.00
2023-11-24T07:43:38.577Z,95135.00
2023-11-24T07:44:38.553Z,95136.00
2023-11-24T07:45:38.616Z,95141.00
2023-11-24T07:46:38.630Z,95137.00
2023-11-24T07:47:38.560Z,95132.00
2023-11-24T07:48:38.555Z,95131.00
2023-11-24T07:49:38.515Z,95127.00
2023-11-24T07:50:38.534Z,95125.00
2023-11-24T07:51:38.545Z,95125.00
2023-11-24T07:52:38.508Z,95129.00
2023-11-24T07:53:38.481Z,95129.00
2023-11-24T07:54:38.500Z,95132.00
2023-11-24T07:55:38.475Z,95132.00
2023-11-24T07:56:38.461Z,95123.00
2023-11-24T07:57:38.509Z,95120.00
2023-11-24T07:58:38.442Z,95124.00
2023-11-24T07:59:38.447Z,95120.00
2023-11-24T08:00:38.438Z,95115.00
2023-11-24T08:01:38.528Z,95104.00
2023-11-24T08:02:38.563Z,95101.00
2023-11-24T08:03:38.540Z,95106.00
2023-11-24T08:04:38.477Z,95108.00
2023-11-24T08:05:38.389Z,95105.00
2023-11-24T08:06:38.387Z,95100.00
2023-11-24T08:07:38.358Z,95097.00
2023-11-24T08:08:38.381Z,95094.00
2023-11-24T08:09:38.457Z,95094.00
2023-11-24T08:10:38.960Z,95095.00
2023-11-24T08:11:38.332Z,95087.00
2023-11-24T08:12:38.442Z,95078.00
2023-11-24T08:13:38.326Z,95087.00
2023-11-24T08:14:38.302Z,95100.00
2023-11-24T08:15:38.319Z,95106.00
2023-11-24T08:16:38.394Z,95098.00
2023-11-24T08:17:38.323Z,95087.00
2023-11-24T08:18:38.280Z,95079.00
2023-11-24T08:19:38.266Z,95077.00
2023-11-24T08:20:38.275Z,95077.00
2023-11-24T08:21:38.361Z,95084.00
2023-11-24T08:22:38.228Z,95088.00
2023-11-24T08:23:38.232Z,95090.00
2023-11-24T08:24:38.226Z,95089.00
2023-11-24T08:25:38.228Z,95089.00
2023-11-24T08:26:38.199Z,95093.00
2023-11-24T08:27:38.242Z,95088.00
2023-11-24T08:28:38.199Z,95082.00
2023-11-24T08:29:38.180Z,95071.00
2023-11-24T08:30:38.207Z,95055.00
2023-11-24T08:31:38.169Z,95042.00
2023-11-24T08:32:38.204Z,95040.00
2023-11-24T08:33:38.172Z,95039.00
2023-11-24T08:34:38.185Z,95041.00
2023-11-24T08:35:38.156Z,95045.00
2023-11-24T08:36:38.153Z,95051.00
2023-11-24T08:37:38.129Z,95051.00
2023-11-24T08:38:38.094Z,95051.00
2023-11-24T08:39:38.111Z,95054.00
2023-11-24T08:40:38.075Z,95061.00
2023-11-24T08:41:40.680Z,95055.00
2023-11-24T08:42:38.154Z,95045.00
2023-11-24T08:43:38.084Z,95035.00
2023-11-24T08:44:40.372Z,95030.00
2023-11-24T08:54:04.824Z,95015.00
2023-11-24T08:55:05.480Z,95015.00
2023-11-24T08:56:04.824Z,95020.00
2023-11-24T08:57:04.814Z,95017.00
2023-11-24T08:58:04.853Z,95018.00
2023-11-24T08:59:04.786Z,95011.00
2023-11-24T09:00:04.796Z,95001.00
2023-11-24T09:01:04.816Z,94990.00
2023-11-24T09:02:04.854Z,94983.00
2023-11-24T09:03:04.744Z,94977.00
2023-11-24T09:04:04.832Z,94978.00
2023-11-24T09:05:04.835Z,94974.00
2023-11-24T09:06:04.739Z,94972.00
2023-11-24T09:07:04.805Z,94974.00
2023-11-24T09:08:04.717Z,94975.00
2023-11-24T09:09:04.717Z,94972.00
2023-11-24T09:10:04.788Z,94974.00
2023-11-24T09:11:04.694Z,94973.00
2023-11-24T09:12:04.672Z,94968.00
2023-11-24T09:13:04.702Z,94962.00
2023-11-24T09:14:04.654Z,94963.00
2023-11-24T09:15:04.643Z,94965.00
2023-11-24T09:16:04.686Z,94967.00
2023-11-24T09:17:04.686Z,94960.00
2023-11-24T09:18:04.678Z,94953.00
2023-11-24T09:19:04.648Z,94954.00
2023-11-24T09:20:04.628Z,94957.00
2023-11-24T09:21:04.595Z,94960.00
2023-11-24T09:22:04.620Z,94960.00
2023-11-24T09:23:04.571Z,94957.00
2023-11-24T09:24:04.595Z,94952.00
2023-11-24T09:25:04.572Z,94944.00
2023-11-24T09:26:04.561Z,94937.00
2023-11-24T09:27:04.562Z,94937.00
2023-11-24T09:28:04.562Z,94933.00
2023-11-24T09:29:04.513Z,94932.00
2023-11-24T09:30:04.599Z,94931.00
2023-11-24T09:31:09.708Z,94926.00
2023-11-24T09:32:04.506Z,94920.00
2023-11-24T09:33:04.494Z,94913.00
2023-11-24T09:34:04.656Z,94909.00
2023-11-24T09:35:04.538Z,94906.00
2023-11-24T09:36:04.480Z,94905.00
2023-11-24T09:37:04.492Z,94897.00
2023-11-24T09:38:04.453Z,94892.00
2023-11-24T09:39:04.446Z,94892.00
2023-11-24T09:40:04.547Z,94891.00
2023-11-24T09:41:04.499Z,94889.00
2023-11-24T09:42:04.419Z,94886.00
2023-11-24T09:43:04.449Z,94884.00
2023-11-24T09:44:04.400Z,94883.00
2023-11-24T09:45:04.386Z,94878.00
2023-11-24T09:46:04.476Z,94877.00
2023-11-24T09:47:04.452Z,94877.00
2023-11-24T09:48:04.394Z,94877.00
2023-11-24T09:49:04.370Z,94879.00
2023-11-24T09:50:04.406Z,94883.00
2023-11-24T09:51:04.349Z,94886.00
2023-11-24T09:52:04.365Z,94894.00
2023-11-24T09:53:04.305Z,94891.00
2023-11-24T09:54:04.309Z,94890.00
2023-11-24T09:55:04.356Z,94886.00
2023-11-24T09:56:04.534Z,94887.00
2023-11-24T09:57:04.297Z,94886.00
2023-11-24T09:58:04.302Z,94881.00
2023-11-24T09:59:04.462Z,94871.00
2023-11-24T10:00:04.256Z,94862.00
2023-11-24T10:01:04.293Z,94855.00
2023-11-24T10:02:06.331Z,94847.00
2023-11-24T10:03:04.271Z,94848.00
2023-11-24T10:04:04.313Z,94849.00
2023-11-24T10:05:04.215Z,94852.00
2023-11-24T10:06:04.199Z,94853.00
2023-11-24T10:07:04.223Z,94858.00
2023-11-24T10:08:04.179Z,94860.00
2023-11-24T10:09:04.185Z,94859.00
2023-11-24T10:10:04.260Z,94855.00
2023-11-24T10:11:04.154Z,94860.00
2023-11-24T10:12:04.137Z,94865.00
2023-11-24T10:13:04.869Z,94874.00
2023-11-24T10:14:04.146Z,94881.00
2023-11-24T10:15:04.120Z,94883.00
2023-11-24T10:16:04.169Z,94879.00
2023-11-24T10:17:04.104Z,94875.00
2023-11-24T10:18:04.137Z,94877.00
2023-11-24T10:19:04.115Z,94875.00
2023-11-24T10:20:04.088Z,94872.00
2023-11-24T10:21:04.063Z,94867.00
2023-11-24T10:22:04.151Z,94867.00
2023-11-24T10:23:04.041Z,94867.00
2023-11-24T10:24:04.057Z,94869.00
2023-11-24T10:25:04.098Z,94868.00
2023-11-24T10:26:04.022Z,94867.00
2023-11-24T10:27:04.000Z,94866.00
2023-11-24T10:28:04.048Z,94867.00
2023-11-24T10:29:03.994Z,94869.00
2023-11-24T10:30:03.988Z,94869.00
2023-11-24T10:31:04.028Z,94870.00
2023-11-24T10:32:03.971Z,94872.00
2023-11-24T10:33:04.073Z,94873.00
2023-11-24T10:34:04.064Z,94875.00
2023-11-24T10:35:04.096Z,94869.00
2023-11-24T10:36:03.930Z,94861.00
2023-11-24T10:37:04.011Z,94857.00
2023-11-24T10:38:04.011Z,94854.00
2023-11-24T10:39:03.981Z,94855.00
2023-11-24T10:40:03.954Z,94856.00
2023-11-24T10:41:05.283Z,94857.00
2023-11-24T10:42:03.869Z,94857.00
2023-11-24T10:43:03.976Z,94857.00
2023-11-24T10:44:03.875Z,94855.00
2023-11-24T10:45:03.858Z,94851.00
2023-11-24T10:46:03.939Z,94849.00
2023-11-24T10:47:03.850Z,94840.00
2023-11-24T10:48:03.853Z,94836.00
2023-11-24T10:49:03.833Z,94831.00
2023-11-24T10:50:03.808Z,94831.00
2023-11-24T10:51:03.789Z,94826.00
2023-11-24T10:52:03.835Z,94820.00
2023-11-24T10:53:03.846Z,94815.00
2023-11-24T10:54:03.820Z,94814.00
2023-11-24T10:55:03.768Z,94809.00
2023-11-24T10:56:03.766Z,94805.00
2023-11-24T10:57:03.750Z,94803.00
2023-11-24T10:58:03.775Z,94807.00
2023-11-24T10:59:03.727Z,94807.00
2023-11-24T11:00:03.714Z,94800.00
2023-11-24T11:01:04.094Z,94806.00
2023-11-24T11:02:03.981Z,94813.00
2023-11-24T11:03:03.702Z,94817.00
2023-11-24T11:04:03.701Z,94820.00
2023-11-24T11:05:03.678Z,94820.00
2023-11-24T11:06:03.663Z,94818.00
2023-11-24T11:07:03.688Z,94821.00
2023-11-24T11:08:03.639Z,94814.00
2023-11-24T11:09:03.629Z,94811.00
2023-11-24T11:10:03.994Z,94809.00
2023-11-24T11:11:03.676Z,94807.00
2023-11-24T11:12:03.621Z,94808.00
2023-11-24T11:13:03.604Z,94814.00
2023-11-24T11:14:05.449Z,94815.00
2023-11-24T11:15:03.712Z,94809.00
2023-11-24T11:16:03.738Z,94806.00
2023-11-24T11:17:03.748Z,94804.00
2023-11-24T11:18:03.716Z,94800.00
2023-11-24T11:19:03.810Z,94800.00
2023-11-24T11:20:05.753Z,94803.00
2023-11-24T11:21:03.691Z,94800.00
2023-11-24T11:22:03.692Z,94794.00
2023-11-24T11:23:03.656Z,94789.00
2023-11-24T11:24:03.625Z,94782.00
2023-11-24T11:25:03.645Z,94774.00
2023-11-24T11:26:06.083Z,94774.00
2023-11-24T11:27:03.747Z,94782.00
2023-11-24T11:28:03.850Z,94783.00
2023-11-24T11:29:03.703Z,94784.00
2023-11-24T11:30:03.716Z,94787.00
2023-11-24T11:31:03.751Z,94785.00
2023-11-24T11:32:03.739Z,94789.00
2023-11-24T11:33:03.741Z,94790.00
2023-11-24T11:34:03.795Z,94796.00
2023-11-24T11:35:03.698Z,94798.00
2023-11-24T11:36:03.653Z,94801.00
2023-11-24T11:37:03.694Z,94803.00
2023-11-24T11:38:03.645Z,94796.00
2023-11-24T11:39:03.624Z,94786.00
2023-11-24T11:40:03.670Z,94781.00
2023-11-24T11:41:03.631Z,94769.00
2023-11-24T11:42:03.686Z,94761.00
2023-11-24T11:43:03.614Z,94763.00
2023-11-24T11:44:03.599Z,94763.00
2023-11-24T11:45:03.713Z,94763.00
2023-11-24T11:46:03.741Z,94766.00
2023-11-24T11:47:03.722Z,94767.00
2023-11-24T11:48:03.617Z,94757.00
2023-11-24T11:49:03.600Z,94751.00
2023-11-24T11:50:03.581Z,94737.00
2023-11-24T11:51:03.576Z,94732.00
2023-11-24T11:52:03.576Z,94731.00
2023-11-24T11:53:03.617Z,94734.00